To NAV CANADA Home Page Login to a new session Search on AWWS site Feedback and Comments Disclaimer Vers la page française équivalente Tips FAQ What's new on the site To the Forecasts and Observations / NOTAM section To "File a Flight Plan" website Publications and other links Update of the User's profile FIC Telephone Numbers My Weather Data Folder Route Weather Data Regional Weather Data Local Weather Data To the Forecasts and Observations / NOTAM section
Request Generated 03/28/2017 at 02:22:19 UTC . Weather information available at that time is displayed.

METAR/TAF

NORTH BATTLEFORD/SK    (show WxCam)

METAR CYQW 280200Z AUTO 11010KT 9SM SCT090 SCT110 BKN140 02/02 A3002
RMK SLP194=
SPECI CYQW 280158Z AUTO 11010KT 9SM SCT090 SCT110 BKN140 02/02 A3002
RMK SLP194=
METAR CYQW 280100Z AUTO 10011G17KT 9SM OVC090 03/02 A3001 RMK SLP191=
SPECI CYQW 280027Z AUTO 11011G17KT 9SM SCT020 OVC085 04/02 A3000 RMK
SLP188=
METAR CYQW 280000Z AUTO 11014G19KT 9SM BKN018 04/02 A3000 RMK SLP187=

TAF CYQW 272339Z 2800/2812 11012KT P6SM BKN025 TEMPO 2800/2805 BKN012
FM280500 11012KT P6SM BKN012 TEMPO 2805/2812 4SM BR BKN008
RMK FCST BASED ON AUTO OBS. NXT FCST BY 280600Z=
Your time UTC time
Weather data provided by Environment Canada and NAV CANADA